Flight Track Log - Related Links

Times and Time Zones

All times are in EDT time to prevent confusion due to time zone crossing. See the N711FG flight status page for this flight to view local times or setup timezone preferences in your user account.

Time Position Orientation Groundspeed Altitude Reporting Facility
EDT Latitude Longitude Course Direction KTS MPH feet Rate Location/Type
Sun 02:11:40 PM 38.1178 -85.7092 226° Southwest 242 278 40,000  Level Indianapolis Center
Sun 02:12:42 PM 38.0417 -85.6872 167° South 275 316 7,200 -14,758 Descending Indianapolis Center
Sun 02:13:44 PM 37.9719 -85.7389 210° Southwest 315 362 9,500 2,565 Climbing Indianapolis Center
Sun 02:14:46 PM 37.9494 -85.8561 256° West 340 391 12,500 2,661 Climbing Indianapolis Center
Sun 02:15:48 PM 37.9353 -85.9736 261° West 338 389 15,000 2,516 Climbing Indianapolis Center
Sun 02:16:50 PM 37.8569 -86.0417 214° Southwest 338 389 17,700 2,274 Climbing Indianapolis Center
Sun 02:17:00 PM 37.7130 -86.3307 226° Southwest  Level Estimated
Sun 02:17:52 PM 37.7686 -86.0792 199° South 333 383 19,700  Level Indianapolis Center
Sun 02:18:53 PM 37.6750 -86.1178 198° South 346 398 22,500 2,488 Climbing Indianapolis Center
Sun 02:19:55 PM 37.5856 -86.1592 200° South 342 394 24,800 2,108 Climbing Indianapolis Center
Sun 02:20:44 PM 37.5089 -86.2289 216° Southwest 357 411 26,400 1,872 Climbing Memphis Center
Sun 02:21:44 PM 37.4528 -86.3547 241° Southwest 377 434 28,200 1,840 Climbing Memphis Center
Sun 02:21:59 PM 37.4353 -86.3986 243° Southwest 422 486 28,700 1,870 Climbing Indianapolis Center
Sun 02:23:01 PM 37.3747 -86.5358 241° Southwest 441 507 30,600 1,714 Climbing Indianapolis Center
Sun 02:23:44 PM 37.3342 -86.6267 241° Southwest 448 516 31,700 1,456 Climbing Memphis Center
Sun 02:24:44 PM 37.2756 -86.7625 242° Southwest 448 516 33,100 1,100 Climbing Memphis Center
Sun 02:25:44 PM 37.2069 -86.9139 240° Southwest 453 521 33,900 850 Climbing Memphis Center
Sun 02:26:44 PM 37.1483 -87.0544 242° Southwest 453 521 34,800 750 Climbing Memphis Center
Sun 02:27:44 PM 37.0853 -87.1950 241° Southwest 453 521 35,400 750 Climbing Memphis Center
Sun 02:28:44 PM 37.0242 -87.3325 241° Southwest 453 521 36,300 900 Climbing Memphis Center
Sun 02:29:44 PM 36.9606 -87.4647 239° Southwest 459 528 37,200 750 Climbing Memphis Center
Sun 02:30:44 PM 36.9011 -87.5964 241° Southwest 449 517 37,800 550 Climbing Memphis Center
Sun 02:31:44 PM 36.8417 -87.7333 242° Southwest 449 517 38,300 500 Climbing Memphis Center
Sun 02:32:44 PM 36.7817 -87.8650 240° Southwest 449 517 38,800 500 Climbing Memphis Center
Sun 02:33:44 PM 36.7217 -87.9961 240° Southwest 444 511 39,300 450 Climbing Memphis Center
Sun 02:34:44 PM 36.6447 -88.1122 230° Southwest 449 517 39,700 350 Climbing Memphis Center
Sun 02:35:44 PM 36.5503 -88.1975 216° Southwest 425 489 40,000 150 Climbing Memphis Center
Sun 02:36:44 PM 36.4603 -88.2953 221° Southwest 431 496 40,000  Level Memphis Center
Sun 02:37:44 PM 36.3661 -88.3958 221° Southwest 444 511 40,000  Level Memphis Center
Sun 02:38:44 PM 36.2717 -88.4958 220° Southwest 454 522 40,000  Level Memphis Center
Sun 02:39:44 PM 36.1753 -88.5931 219° Southwest 454 522 40,000  Level Memphis Center
Sun 02:40:44 PM 36.0786 -88.6928 220° Southwest 454 522 40,000  Level Memphis Center
Sun 02:41:44 PM 35.9922 -88.7792 219° Southwest 454 522 40,000  Level Memphis Center
Sun 02:42:44 PM 35.8953 -88.8783 220° Southwest 454 522 40,000  Level Memphis Center
Sun 02:43:44 PM 35.8006 -88.9775 220° Southwest 454 522 40,000  Level Memphis Center
Sun 02:44:44 PM 35.7058 -89.0761 220° Southwest 454 522 40,000  Level Memphis Center
Sun 02:45:44 PM 35.6044 -89.1825 220° Southwest 443 510 40,000  Level Memphis Center
Sun 02:46:44 PM 35.5094 -89.2781 219° Southwest 450 518 40,000  Level Memphis Center
Sun 02:47:44 PM 35.4225 -89.3658 219° Southwest 450 518 40,000  Level Memphis Center
Sun 02:48:44 PM 35.3294 -89.4611 220° Southwest 450 518 40,000  Level Memphis Center
Sun 02:49:44 PM 35.2364 -89.5564 220° Southwest 450 518 40,000  Level Memphis Center
Sun 02:50:44 PM 35.1325 -89.6614 220° Southwest 450 518 40,000  Level Memphis Center
Sun 02:51:44 PM 35.0517 -89.7433 220° Southwest 443 510 40,000  Level Memphis Center
Sun 02:52:44 PM 34.9667 -89.8275 219° Southwest 443 510 40,000  Level Memphis Center
Sun 02:53:44 PM 34.8606 -89.9319 219° Southwest 451 519 40,000  Level Memphis Center
Sun 02:54:44 PM 34.7650 -90.0283 220° Southwest 451 519 40,000  Level Memphis Center
Sun 02:55:44 PM 34.6733 -90.1197 219° Southwest 446 513 40,000  Level Memphis Center
Sun 02:56:44 PM 34.5775 -90.2133 219° Southwest 440 506 40,000  Level Memphis Center
Sun 02:57:44 PM 34.4858 -90.3017 218° Southwest 440 506 40,000  Level Memphis Center
Sun 02:58:44 PM 34.3919 -90.3950 219° Southwest 440 506 40,000  Level Memphis Center
Sun 02:59:44 PM 34.2978 -90.4853 218° Southwest 440 506 40,000  Level Memphis Center
Sun 03:00:44 PM 34.1956 -90.5856 219° Southwest 440 506 40,000  Level Memphis Center
Sun 03:01:44 PM 34.1033 -90.6758 219° Southwest 435 501 40,000  Level Memphis Center
Sun 03:02:44 PM 34.0092 -90.7656 218° Southwest 435 501 40,000  Level Memphis Center
Sun 03:03:44 PM 33.9172 -90.8553 219° Southwest 435 501 40,000  Level Memphis Center
Sun 03:04:44 PM 33.8208 -90.9472 218° Southwest 440 506 40,000  Level Memphis Center
Sun 03:05:44 PM 33.7347 -91.0317 219° Southwest 440 506 40,000  Level Memphis Center
Sun 03:06:44 PM 33.6425 -91.1183 218° Southwest 440 506 40,000  Level Memphis Center
Sun 03:07:44 PM 33.5478 -91.2072 218° Southwest 440 506 40,000  Level Memphis Center
Sun 03:08:44 PM 33.4533 -91.2983 219° Southwest 445 512 40,000  Level Memphis Center
Sun 03:10:51 PM 33.2633 -91.4864 220° Southwest 429 494 40,000  Level Fort Worth Center
Sun 03:11:51 PM 33.1675 -91.5769 218° Southwest 434 499 40,000  Level Fort Worth Center
Sun 03:12:51 PM 33.0650 -91.6631 215° Southwest 445 512 40,000  Level Fort Worth Center
Sun 03:13:51 PM 32.9692 -91.7558 219° Southwest 445 512 40,000  Level Fort Worth Center
Sun 03:14:51 PM 32.8769 -91.8433 219° Southwest 440 506 40,000  Level Fort Worth Center
Sun 03:16:26 PM 32.7194 -91.9906 218° Southwest 436 502 40,000  Level Houston Center
Sun 03:17:28 PM 32.6242 -92.0775 218° Southwest 432 497 40,000  Level Houston Center
Sun 03:18:30 PM 32.5208 -92.1722 218° Southwest 433 498 40,000  Level Houston Center
Sun 03:19:32 PM 32.4261 -92.2592 218° Southwest 432 497 40,000  Level Houston Center
Sun 03:20:34 PM 32.3336 -92.3469 219° Southwest 427 491 40,000  Level Houston Center
Sun 03:21:36 PM 32.2389 -92.4317 217° Southwest 427 491 40,000  Level Houston Center
Sun 03:22:38 PM 32.1458 -92.5197 219° Southwest 429 494 40,000  Level Houston Center
Sun 03:23:40 PM 32.0325 -92.6219 217° Southwest 428 493 40,000  Level Houston Center
Sun 03:24:42 PM 31.9417 -92.7108 220° Southwest 426 490 40,000  Level Houston Center
Sun 03:25:44 PM 31.8658 -92.8150 229° Southwest 419 482 40,000  Level Houston Center
Sun 03:26:47 PM 31.7864 -92.9158 227° Southwest 421 484 40,000  Level Houston Center
Sun 03:27:49 PM 31.7067 -93.0147 227° Southwest 418 481 40,000  Level Houston Center
Sun 03:28:51 PM 31.6122 -93.1347 227° Southwest 415 478 40,000  Level Houston Center
Sun 03:29:53 PM 31.5353 -93.2325 227° Southwest 410 472 40,000  Level Houston Center
Sun 03:30:55 PM 31.4519 -93.3383 227° Southwest 409 471 40,000 -48 Level Houston Center
Sun 03:31:57 PM 31.3756 -93.4344 227° Southwest 405 466 39,900 -726 Descending Houston Center
Sun 03:32:59 PM 31.2967 -93.5328 227° Southwest 412 474 38,500 -919 Descending Houston Center
Sun 03:34:01 PM 31.2233 -93.6247 227° Southwest 417 480 38,000 -240 Descending Houston Center
Sun 03:35:04 PM 31.1292 -93.7408 227° Southwest 415 478 38,000 -528 Level Houston Center
Sun 03:36:06 PM 31.0192 -93.7939 202° Southwest 437 503 36,900 -919 Descending Houston Center
Sun 03:37:08 PM 30.8861 -93.7844 177° South 477 549 36,100 -968 Descending Houston Center
Sun 03:38:10 PM 30.7681 -93.8144 192° South 443 510 34,900 -2,371 Descending Houston Center
Sun 03:39:12 PM 30.6889 -93.9100 226° Southwest 419 482 31,200 -4,016 Descending Houston Center
Sun 03:40:14 PM 30.6439 -94.0528 250° West 396 456 26,600 -4,065 Descending Houston Center
Sun 03:41:16 PM 30.6078 -94.1686 250° West 386 444 22,800 -4,037 Descending Houston Center
Sun 03:42:01 PM 30.5750 -94.2639 248° West 383 441 19,400 -4,161 Descending Houston Center
Sun 03:42:18 PM 30.5708 -94.2831 256° West 381 438 18,500 -4,478 Descending Houston Center
Sun 03:43:08 PM 30.5331 -94.3933 248° West 379 436 14,400 -2,786 Descending Houston Center
Sun 03:44:10 PM 30.4975 -94.5022 249° West 364 419 13,300 -683 Descending Houston Center
Sun 03:45:11 PM 30.4442 -94.6014 238° Southwest 366 421 13,000 -148 Descending Houston Center
Sun 03:46:12 PM 30.3736 -94.6978 230° Southwest 379 436 13,000 -79 Level Houston Center
Sun 03:46:27 PM 30.3631 -94.7161 236° Southwest 378 435 12,900  Descending Houston Center
Sun 03:47:07 PM 30.3192 -94.7869 234° Southwest 374 430 13,000 97 Climbing Houston Center
Sun 03:47:29 PM 30.3044 -94.8094 233° Southwest 373 429 13,000 -537 Level Houston Center
Sun 03:48:14 PM 30.2497 -94.8950 233° Southwest 366 421 12,400 -1,132 Descending Houston Center
Sun 03:49:15 PM 30.1894 -94.9919 234° Southwest 363 418 11,000 -1,139 Descending Houston Center
Sun 03:49:33 PM 30.1861 -94.9989 241° Southwest 363 418 10,900 -581 Descending Houston Center
Sun 03:50:17 PM 30.1219 -95.0778 227° Southwest 365 420 10,400 -581 Descending Houston Center
Sun 03:50:35 PM 30.0981 -95.0914 206° Southwest 365 420 10,300 -393 Descending Houston Center
Sun 03:51:18 PM 30.0250 -95.1186 198° South 375 432 10,000 -290 Descending Houston Center
Sun 03:51:37 PM 29.9986 -95.1289 199° South 376 433 10,000 -197 Level Houston Center
Sun 03:52:19 PM 29.9336 -95.1542 199° South 319 367 9,800 -387 Descending Houston Center
Sun 03:52:39 PM 29.9108 -95.1636 200° South 336 387 9,600 -1,180 Descending Houston Center
Sun 03:53:20 PM 29.8450 -95.1939 202° Southwest 313 360 8,600 -1,143 Descending Houston Center
Sun 03:53:42 PM 29.8319 -95.2017 207° Southwest 313 360 8,400 -1,179 Descending Houston Center
Sun 03:54:16 PM 29.7744 -95.2264 200° South 299 344 7,500 -1,161 Descending Houston Center
Sun 03:54:44 PM 29.7544 -95.2353 201° Southwest 303 349 7,200 -985 Descending Houston Center
Sun 03:55:23 PM 29.6953 -95.2097 159° South 292 336 6,400 -1,065 Descending Houston Center
Sun 03:55:46 PM 29.6733 -95.1858 137° Southeast 289 333 6,100 -1,082 Descending Houston Center
Sun 03:56:24 PM 29.6369 -95.1469 137° Southeast 287 330 5,300 -1,258 Descending Houston Center
Sun 03:56:48 PM 29.6117 -95.1183 135° Southeast 290 334 4,800 -885 Descending Houston Center
Sun 03:57:25 PM 29.5742 -95.0828 140° Southeast 279 321 4,400 -484 Descending Houston Center
Sun 03:57:50 PM 29.5467 -95.0747 166° South 280 322 4,300 -677 Descending Houston Center
Sun 03:58:27 PM 29.5178 -95.1089 226° Southwest 225 259 3,700 -871 Descending Houston Center
Sun 03:58:52 PM 29.5228 -95.1319 284° West 246 283 3,400 -689 Descending Houston Center
Sun 03:59:28 PM 29.5461 -95.1631 311° West 195 224 3,000 -871 Descending Houston Center
Sun 03:59:54 PM 29.5608 -95.1792 316° Northwest 213 245 2,500 -1,279 Descending Houston Center
Sun 04:00:29 PM 29.5836 -95.2064 314° West 196 226 1,700 -1,188 Descending Houston Center
Sun 04:01:30 PM 29.6192 -95.2503 313° West 155 178 600 -1,011 Descending Houston Center
Sun 04:01:58 PM 29.6314 -95.2644 315° West 182 209 200 -333 Descending Houston Center
Sun 04:03:00 PM 29.6594 -95.2986 313° West 176 203 100 -97 Descending Houston Center

Login

Don't have an account? Register now (free) for customized features, flight alerts, and more!